Aérodrome :
LOGIN :

S'inscrire | Disclaimer

   EN    FR    IT 

 










Légende :    VFR   VFR Marginal   IFR   IFR Intensif   IFR Très Intensif
Visi : 
Plafond : 
>= 8 km
>= 3000ft
5 à 8 km
1000 à 3000 ft
1500m à 5 km
500 à 1000 ft
800 à 1500m
200 à 500 ft
< 800m
< 200 ft
Symboles :   Orages  Brouillard  Fortes neiges  Fortes précipitations  Vent > 20 kt
SIGMETs :   Divers  Orages  Givrage  Turbulence  Onde Orograph.  Cendres Volcan.






- Altitude de l'aérodrome : 648 ft
- Code IATA : INI


LYNI - Nis Constantine

DERNIER METAR :
  • 011530Z 00000KT 9999 -RA FEW040 15/11 Q1009 NOSIG

METARs EXPIRÉS :
  • 011500Z 10003KT 9999 FEW040 15/11 Q1009 NOSIG
  • 011430Z 11003KT 090V160 9999 SCT040 15/11 Q1009 NOSIG
  • 011400Z VRB01KT 9999 SCT040 15/11 Q1009 NOSIG
  • 011330Z 12003KT 080V180 9999 SCT040 15/11 Q1009 NOSIG
  • 011300Z 10003KT 060V170 9999 FEW015 SCT040 15/11 Q1009 NOSIG

TAF TAF LYNI
Valide du 01 à 12h jusqu'au 02 à 12h UTC


011100Z 0112/0212 23004KT 9999 FEW013 BKN040 TX25/0212Z TN10/0204Z
BECMG 0203/0205 0800 FG BKN003
BECMG 0207/0209 17010KT CAVOK



MET'MAP, la Météo Aéronautique d'un coup d'oeil ! - Copyright ORBIFLY Décembre 2007 - Disclaimer

ORBIFLY MET'MAP TEAM :

Programmation & Développement : Alexandra Zaïnal
Sur une idée originale de : Baudouin d'Aumeries
Assistance à la programmation : Marc-Olivier Méhu
Soutien technique & logistique : Manuel Goepfert

Contact : metmap@orbifly.com




SOURCES & CREDITS :

   NOAA